Sumifukumaru No.5 — JD3058 — position and weather

sailwx.info

Track history (hours):
 
Tides and Currents Weather Stations Pressure Air Temp Water Temp Dewpoint Dewpoint Depression Visibility Wind Speed Wind Dir Waves Ship Positions

Sumifukumaru No.5

Last reported at 2014-Oct-18 16:33 UTC. Time now 2014-Oct-25 19:55 UTC.
Position N 34°04' E 135°00'.

Length 75 m; draft 4.4 m.

Type: Cargo ship. MMSI: 431001371.

Date/timePositionNaut miles runAvg speedWind from/ knotsBaromVisibWave heightAir tempDewpointWater temp
2014-Oct-18 16:33N 34°04' E 135°00'1312.1
2014-Oct-18 15:31N 34°16' E 134°59'1212.3
2014-Oct-18 14:33N 34°28' E 135°01'9 8.5
2014-Oct-18 13:26N 34°36' E 134°56'4 0.1
2014-Oct-16 12:10N 34°38' E 134°51'6 9.2
2014-Oct-16 11:33N 34°38' E 134°58'8 7.5
2014-Oct-16 10:31N 34°32' E 135°04'231 8.5
2014-Oct-15 07:28N 35°08' E 139°42'1011.1
2014-Oct-15 06:34N 35°18' E 139°44'7 7.1
2014-Oct-15 05:32N 35°24' E 139°48'4 3.8
2014-Oct-15 04:33N 35°22' E 139°51'0 0.0
2014-Oct-15 03:32N 35°22' E 139°51'0 0.0
2014-Oct-15 02:33N 35°22' E 139°51'0 0.0
2014-Oct-15 01:33N 35°22' E 139°51'0 0.0
2014-Oct-15 00:34N 35°22' E 139°51'0 0.0
2014-Oct-14 23:33N 35°22' E 139°51'0 0.0
2014-Oct-14 22:33N 35°22' E 139°51'2 1.6
2014-Oct-14 21:33N 35°22' E 139°49'0 0.0
2014-Oct-14 20:33N 35°22' E 139°49'0 0.0
2014-Oct-14 19:33N 35°22' E 139°49'0 0.0
2014-Oct-14 18:33N 35°22' E 139°49'0 0.0
2014-Oct-14 17:33N 35°22' E 139°49'0 0.0
2014-Oct-14 16:33N 35°22' E 139°49'0 0.0
2014-Oct-14 15:33N 35°22' E 139°49'0 0.0
2014-Oct-14 14:33N 35°22' E 139°49'0 0.0
2014-Oct-14 13:33N 35°22' E 139°49'0 0.0
2014-Oct-14 12:33N 35°22' E 139°49'0 0.0
2014-Oct-14 11:33N 35°22' E 139°49'0 0.1
2014-Oct-14 10:33N 35°22' E 139°49'0 0.1
2014-Oct-14 09:33N 35°22' E 139°49'0 0.0
2014-Oct-14 08:33N 35°22' E 139°49'9 9.4
2014-Oct-14 07:33N 35°28' E 139°40'1 1.2
2014-Oct-14 06:33N 35°29' E 139°39'0 0.0
2014-Oct-14 05:34N 35°29' E 139°39'0 0.0
2014-Oct-14 04:33N 35°29' E 139°39'0 0.0
2014-Oct-14 03:33N 35°29' E 139°39'0 0.0
2014-Oct-14 02:34N 35°29' E 139°39'0 0.0
2014-Oct-14 01:33N 35°29' E 139°39'0 0.0
2014-Oct-14 00:33N 35°29' E 139°39'0 0.0
2014-Oct-13 23:30N 35°29' E 139°39'  
2014-Oct-11 03:31N 35°36' E 139°50'3 0.5
2014-Oct-10 21:30N 35°35' E 139°54'2 0.0
2014-Oct-09 04:34N 35°34' E 139°51'1010.1
2014-Oct-09 03:33N 35°25' E 139°47'1110.1
2014-Oct-09 02:31N 35°14' E 139°47'  
Track history (hours):
 
Tides and Currents Weather Stations Pressure Air Temp Water Temp Dewpoint Dewpoint Depression Visibility Wind Speed Wind Dir Waves Ship Positions

Sumifukumaru No.5

Last reported at 2014-Oct-18 16:33 UTC. Time now 2014-Oct-25 19:55 UTC.
Position N 34°04' E 135°00'.

Length 75 m; draft 4.4 m.

Type: Cargo ship. MMSI: 431001371.

Date/timePositionNaut miles runAvg speedWind from/ knotsBaromVisibWave heightAir tempDewpointWater temp
2014-Oct-18 16:33N 34°04' E 135°00'1312.1
2014-Oct-18 15:31N 34°16' E 134°59'1212.3
2014-Oct-18 14:33N 34°28' E 135°01'9 8.5
2014-Oct-18 13:26N 34°36' E 134°56'4 0.1
2014-Oct-16 12:10N 34°38' E 134°51'6 9.2
2014-Oct-16 11:33N 34°38' E 134°58'8 7.5
2014-Oct-16 10:31N 34°32' E 135°04'231 8.5
2014-Oct-15 07:28N 35°08' E 139°42'1011.1
2014-Oct-15 06:34N 35°18' E 139°44'7 7.1
2014-Oct-15 05:32N 35°24' E 139°48'4 3.8
2014-Oct-15 04:33N 35°22' E 139°51'0 0.0
2014-Oct-15 03:32N 35°22' E 139°51'0 0.0
2014-Oct-15 02:33N 35°22' E 139°51'0 0.0
2014-Oct-15 01:33N 35°22' E 139°51'0 0.0
2014-Oct-15 00:34N 35°22' E 139°51'0 0.0
2014-Oct-14 23:33N 35°22' E 139°51'0 0.0
2014-Oct-14 22:33N 35°22' E 139°51'2 1.6
2014-Oct-14 21:33N 35°22' E 139°49'0 0.0
2014-Oct-14 20:33N 35°22' E 139°49'0 0.0
2014-Oct-14 19:33N 35°22' E 139°49'0 0.0
2014-Oct-14 18:33N 35°22' E 139°49'0 0.0
2014-Oct-14 17:33N 35°22' E 139°49'0 0.0
2014-Oct-14 16:33N 35°22' E 139°49'0 0.0
2014-Oct-14 15:33N 35°22' E 139°49'0 0.0
2014-Oct-14 14:33N 35°22' E 139°49'0 0.0
2014-Oct-14 13:33N 35°22' E 139°49'0 0.0
2014-Oct-14 12:33N 35°22' E 139°49'0 0.0
2014-Oct-14 11:33N 35°22' E 139°49'0 0.1
2014-Oct-14 10:33N 35°22' E 139°49'0 0.1
2014-Oct-14 09:33N 35°22' E 139°49'0 0.0
2014-Oct-14 08:33N 35°22' E 139°49'9 9.4
2014-Oct-14 07:33N 35°28' E 139°40'1 1.2
2014-Oct-14 06:33N 35°29' E 139°39'0 0.0
2014-Oct-14 05:34N 35°29' E 139°39'0 0.0
2014-Oct-14 04:33N 35°29' E 139°39'0 0.0
2014-Oct-14 03:33N 35°29' E 139°39'0 0.0
2014-Oct-14 02:34N 35°29' E 139°39'0 0.0
2014-Oct-14 01:33N 35°29' E 139°39'0 0.0
2014-Oct-14 00:33N 35°29' E 139°39'0 0.0
2014-Oct-13 23:30N 35°29' E 139°39'  
2014-Oct-11 03:31N 35°36' E 139°50'3 0.5
2014-Oct-10 21:30N 35°35' E 139°54'2 0.0
2014-Oct-09 04:34N 35°34' E 139°51'1010.1
2014-Oct-09 03:33N 35°25' E 139°47'1110.1
2014-Oct-09 02:31N 35°14' E 139°47'  

Dump ship's entire track history